This is the latest recevied weather packets stored in our database for station/object kj4yre. If no packets are shown the sender has not sent any weather packets the latest 10 day(s).
| Time | Temp. | Humidity | Pressure | Rain* | Wind** | Luminosity | Snow |
|---|---|---|---|---|---|---|---|
| 1778086505 | 19.44° C | 87% | 1012.7 hPa | 0 mm | - | - | - |
| 1778085006 | 18.89° C | 92% | 1012.7 hPa | 0.51 mm | - | - | - |
| 1778080805 | 18.89° C | 91% | 1014.1 hPa | 0.25 mm | - | - | - |
| 1778080504 | 18.89° C | 90% | 1014.4 hPa | 0.25 mm | - | - | - |
| 1778077506 | 20.56° C | 75% | 1014.2 hPa | 0 mm | - | - | - |
| 1778074506 | 18.89° C | 83% | 1014 hPa | 0 mm | - | - | - |
| 1778073605 | 19.44° C | 78% | 1014.4 hPa | 0 mm | - | - | - |
| 1778062505 | 17.22° C | 82% | 1014.2 hPa | 0 mm | - | - | - |
| 1778061904 | 17.22° C | 82% | 1014.3 hPa | 0 mm | - | - | - |
| 1778060704 | 17.78° C | 81% | 1014 hPa | 0 mm | - | - | - |
| 1778059505 | 17.22° C | 81% | 1014.1 hPa | 0 mm | - | - | - |
| 1778058905 | 17.78° C | 80% | 1014.1 hPa | 0 mm | - | - | - |
| 1778058006 | 17.78° C | 79% | 1014.4 hPa | 0 mm | - | - | - |
| 1778053506 | 17.78° C | 78% | 1014.4 hPa | 0 mm | - | - | - |
| 1778053207 | 17.78° C | 79% | 1014.5 hPa | 0 mm | - | - | - |
| 1778052608 | 17.78° C | 79% | 1014.4 hPa | 0 mm | - | - | - |
| 1778051705 | 17.78° C | 79% | 1014.7 hPa | 0 mm | - | - | - |
| 1778046005 | 18.33° C | 80% | 1015 hPa | 0 mm | - | - | - |
| 1778042105 | 19.44° C | 77% | 1015.3 hPa | 0 mm | - | - | - |
| 1778041807 | 19.44° C | 77% | 1015.4 hPa | 0 mm | - | - | - |
| 1778041505 | 19.44° C | 77% | 1015.5 hPa | 0 mm | - | - | - |
| 1778040905 | 19.44° C | 76% | 1015.3 hPa | 0 mm | - | - | - |
| 1778040015 | 20° C | 75% | 1015.4 hPa | 0 mm | - | - | - |
| 1778037006 | 20.56° C | 71% | 1015.1 hPa | 0 mm | - | - | - |
| 1778035506 | 21.67° C | 68% | 1014.9 hPa | 0 mm | - | - | - |
* Rain latest hour (hover to see other rain measurements)
** Current wind speed in m/s (hover to see current wind gust speed)